地図

経路データ

SID SEASON NUMBER BASIN SUBBASIN NAME ISO_TIME NATURE LAT LON WMO_WIND WMO_PRES WMO_AGENCY TRACK_TYPE DIST2LAND LANDFALL IFLAG USA_AGENCY USA_ATCF_ID USA_LAT USA_LON USA_RECORD USA_STATUS USA_WIND USA_PRES USA_SSHS USA_R34_NE USA_R34_SE USA_R34_SW USA_R34_NW USA_R50_NE USA_R50_SE USA_R50_SW USA_R50_NW USA_R64_NE USA_R64_SE USA_R64_SW USA_R64_NW USA_POCI USA_ROCI USA_RMW USA_EYE TOKYO_LAT TOKYO_LON TOKYO_GRADE TOKYO_WIND TOKYO_PRES TOKYO_R50_DIR TOKYO_R50_LONG TOKYO_R50_SHORT TOKYO_R30_DIR TOKYO_R30_LONG TOKYO_R30_SHORT TOKYO_LAND CMA_LAT CMA_LON CMA_CAT CMA_WIND CMA_PRES HKO_LAT HKO_LON HKO_CAT HKO_WIND HKO_PRES NEWDELHI_LAT NEWDELHI_LON NEWDELHI_GRADE NEWDELHI_WIND NEWDELHI_PRES NEWDELHI_CI NEWDELHI_DP NEWDELHI_POCI REUNION_LAT REUNION_LON REUNION_TYPE REUNION_WIND REUNION_PRES REUNION_TNUM REUNION_CI REUNION_RMW REUNION_R34_NE REUNION_R34_SE REUNION_R34_SW REUNION_R34_NW REUNION_R50_NE REUNION_R50_SE REUNION_R50_SW REUNION_R50_NW REUNION_R64_NE REUNION_R64_SE REUNION_R64_SW REUNION_R64_NW BOM_LAT BOM_LON BOM_TYPE BOM_WIND BOM_PRES BOM_TNUM BOM_CI BOM_RMW BOM_R34_NE BOM_R34_SE BOM_R34_SW BOM_R34_NW BOM_R50_NE BOM_R50_SE BOM_R50_SW BOM_R50_NW BOM_R64_NE BOM_R64_SE BOM_R64_SW BOM_R64_NW BOM_ROCI BOM_POCI BOM_EYE BOM_POS_METHOD BOM_PRES_METHOD NADI_LAT NADI_LON NADI_CAT NADI_WIND NADI_PRES WELLINGTON_LAT WELLINGTON_LON WELLINGTON_WIND WELLINGTON_PRES DS824_LAT DS824_LON DS824_STAGE DS824_WIND DS824_PRES TD9636_LAT TD9636_LON TD9636_STAGE TD9636_WIND TD9636_PRES TD9635_LAT TD9635_LON TD9635_WIND TD9635_PRES TD9635_ROCI NEUMANN_LAT NEUMANN_LON NEUMANN_CLASS NEUMANN_WIND NEUMANN_PRES MLC_LAT MLC_LON MLC_CLASS MLC_WIND MLC_PRES USA_GUST BOM_GUST BOM_GUST_PER REUNION_GUST REUNION_GUST_PER USA_SEAHGT USA_SEARAD_NE USA_SEARAD_SE USA_SEARAD_SW USA_SEARAD_NW STORM_SPEED STORM_DIR
1887080S11452 1887 8 SI WA NOT_NAMED 1887-03-20 18:00:00 NR -10.7000 91.8000 spur-merge 1277 1271 __________O___ -1 -10.7000 91.8000 7 2 102
1887080S11452 1887 8 SI WA NOT_NAMED 1887-03-20 21:00:00 NR -10.7249 91.9198 spur-merge 1271 1264 __________P___ -1 -10.7249 91.9198 7 1 118
1887080S11452 1887 8 SI WA NOT_NAMED 1887-03-21 00:00:00 NR -10.7698 91.9318 spur-merge 1279 1279 __________P___ -1 -10.7698 91.9318 7 2 236
1887080S11452 1887 8 SI WA NOT_NAMED 1887-03-21 03:00:00 NR -10.8550 91.7280 spur-merge 1302 1302 __________P___ -1 -10.8550 91.7280 7 8 252
1887080S11452 1887 8 SI WA NOT_NAMED 1887-03-21 06:00:00 NR -11.0000 91.2000 spur-merge 1345 1345 __________O___ -1 -11.0000 91.2000 7 15 256
1887080S11452 1887 8 SI WA NOT_NAMED 1887-03-21 09:00:00 NR -11.2176 90.2798 spur-merge 1426 1426 __________P___ -1 -11.2176 90.2798 7 22 257
1887080S11452 1887 8 SI MM NOT_NAMED 1887-03-21 12:00:00 NR -11.4988 89.0641 spur-merge 1541 1541 __________P___ -1 -11.4988 89.0641 7 26 256
1887080S11452 1887 8 SI MM NOT_NAMED 1887-03-21 15:00:00 NR -11.8300 87.6913 spur-merge 1675 1675 __________P___ -1 -11.8300 87.6913 7 28 255
1887080S11452 1887 8 SI MM NOT_NAMED 1887-03-21 18:00:00 NR -12.2000 86.3000 spur-merge 1820 1820 __________O___ -1 -12.2000 86.3000 7 28 253
1887080S11452 1887 8 SI MM NOT_NAMED 1887-03-21 21:00:00 NR -12.6354 84.9541 spur-merge 1959 1959 __________P___ -1 -12.6354 84.9541 7 28 251
1887080S11452 1887 8 SI MM NOT_NAMED 1887-03-22 00:00:00 NR -13.0979 83.6347 spur-merge 2114 2114 __________P___ -1 -13.0979 83.6347 7 26 250
1887080S11452 1887 8 SI MM NOT_NAMED 1887-03-22 03:00:00 NR -13.5360 82.4475 spur-merge 2182 2182 __________P___ -1 -13.5360 82.4475 7 22 249
1887080S11452 1887 8 SI MM NOT_NAMED 1887-03-22 06:00:00 NR -13.9000 81.5000 spur-merge 2220 2220 __________O___ -1 -13.9000 81.5000 7 16 248
1887080S11452 1887 8 SI MM NOT_NAMED 1887-03-22 09:00:00 NR -14.1253 80.9133 spur-merge 2240 2240 __________P___ -1 -14.1253 80.9133 7 10 247
1887080S11452 1887 8 SI MM NOT_NAMED 1887-03-22 12:00:00 NR -14.2782 80.5702 spur-merge 2263 2263 __________P___ -1 -14.2782 80.5702 7 6 243
1887080S11452 1887 8 SI MM NOT_NAMED 1887-03-22 15:00:00 NR -14.3921 80.3671 spur-merge 2274 2274 __________P___ -1 -14.3921 80.3671 7 4 238
1887080S11452 1887 8 SI MM NOT_NAMED 1887-03-22 18:00:00 NR -14.5000 80.2000 spur-merge 2285 2285 __________O___ -1 -14.5000 80.2000 7 4 237
1887080S11452 1887 8 SI MM NOT_NAMED 1887-03-22 21:00:00 NR -14.6276 79.9850 spur-merge 2297 2297 __________P___ -1 -14.6276 79.9850 7 5 240
1887080S11452 1887 8 SI MM NOT_NAMED 1887-03-23 00:00:00 NR -14.7745 79.7187 spur-merge 2321 2321 __________P___ -1 -14.7745 79.7187 7 6 241
1887080S11452 1887 8 SI MM NOT_NAMED 1887-03-23 03:00:00 NR -14.9342 79.4181 spur-merge 2333 2328 __________P___ -1 -14.9342 79.4181 7 7 241
1887080S11452 1887 8 SI MM NOT_NAMED 1887-03-23 06:00:00 NR -15.1000 79.1000 spur-merge 2328 __________O___ -1 -15.1000 79.1000 7 7 242

IBTrACS Databaseについて

本データベースは、米国NOAAが公開する1842年以降の世界の熱帯低気圧のベストトラックデータアーカイブInternational Best Track Archive for Climate Stewardship (IBTrACS)を、ウェブで閲覧しやすい形式に変換したものです。

最終更新日:2021-11-26